createdAt,value
2022-09-09T00:00:56.212Z,8.21
2022-09-09T00:03:31.484Z,8.19
2022-09-09T00:06:24.223Z,8.18
2022-09-09T00:09:16.714Z,8.18
2022-09-09T00:12:11.207Z,8.19
2022-09-09T00:14:55.151Z,8.18
2022-09-09T00:17:49.322Z,8.16
2022-09-09T00:20:36.284Z,8.14
2022-09-09T00:23:29.009Z,8.13
2022-09-09T00:26:23.685Z,8.09
2022-09-09T00:28:58.570Z,8.08
2022-09-09T00:31:32.611Z,8.04
2022-09-09T00:34:19.701Z,8.01
2022-09-09T00:36:54.147Z,8.01
2022-09-09T00:39:38.993Z,8.00
2022-09-09T00:42:19.767Z,8.15
2022-09-09T00:44:54.996Z,8.01
2022-09-09T00:47:48.338Z,7.98
2022-09-09T00:50:25.969Z,7.95
2022-09-09T00:53:10.562Z,7.93
2022-09-09T00:56:06.328Z,7.92
2022-09-09T00:58:38.259Z,7.91
2022-09-09T01:01:15.052Z,7.90
2022-09-09T01:03:59.250Z,7.91
2022-09-09T01:06:37.992Z,7.92
2022-09-09T01:09:22.200Z,7.96
2022-09-09T01:12:09.088Z,7.96
2022-09-09T01:14:45.413Z,7.94
2022-09-09T01:17:21.988Z,7.93
2022-09-09T01:20:10.641Z,7.90
2022-09-09T01:22:56.287Z,7.86
2022-09-09T01:25:50.393Z,7.79
2022-09-09T01:28:26.773Z,7.73
2022-09-09T01:31:00.821Z,7.63
2022-09-09T01:33:34.344Z,7.50
2022-09-09T01:36:12.215Z,7.43
2022-09-09T01:38:51.682Z,7.32
2022-09-09T01:41:24.003Z,7.24
2022-09-09T01:43:59.140Z,7.20
2022-09-09T01:46:32.445Z,7.19
2022-09-09T01:49:08.223Z,7.15
2022-09-09T01:51:43.352Z,7.12
2022-09-09T01:54:17.028Z,7.11
2022-09-09T01:57:07.017Z,7.12
2022-09-09T01:59:57.123Z,7.15
2022-09-09T02:02:34.944Z,7.20
2022-09-09T02:05:26.414Z,7.24
2022-09-09T02:08:01.859Z,7.29
2022-09-09T02:10:45.037Z,7.33
2022-09-09T02:13:21.944Z,7.35
2022-09-09T02:16:22.091Z,7.36
2022-09-09T02:19:14.137Z,7.38
2022-09-09T02:21:48.864Z,7.41
2022-09-09T02:24:21.117Z,7.42
2022-09-09T02:26:58.048Z,7.42
2022-09-09T02:29:39.383Z,7.39
2022-09-09T02:32:17.285Z,7.34
2022-09-09T02:34:52.323Z,7.32
2022-09-09T02:37:28.778Z,7.29
2022-09-09T02:40:01.198Z,7.24
2022-09-09T02:42:34.506Z,7.21
2022-09-09T02:45:07.334Z,7.13
2022-09-09T02:47:57.573Z,7.04
2022-09-09T02:50:34.808Z,6.94
2022-09-09T02:53:22.047Z,6.84
2022-09-09T02:56:07.843Z,6.75
2022-09-09T02:58:41.771Z,6.65
2022-09-09T03:01:15.241Z,6.60
2022-09-09T03:03:47.607Z,6.54
2022-09-09T03:06:20.976Z,6.50
2022-09-09T03:08:54.802Z,6.38
2022-09-09T03:11:29.114Z,6.38
2022-09-09T03:14:02.440Z,6.35
2022-09-09T03:16:36.110Z,6.37
2022-09-09T03:19:08.126Z,6.34
2022-09-09T03:21:40.264Z,6.36
2022-09-09T03:24:12.230Z,6.37
2022-09-09T03:26:45.856Z,6.39
2022-09-09T03:29:20.087Z,6.44
2022-09-09T03:31:52.273Z,6.50
2022-09-09T03:34:25.158Z,6.57
2022-09-09T03:36:57.206Z,6.66
2022-09-09T03:39:30.406Z,6.75
2022-09-09T03:42:06.768Z,6.86
2022-09-09T03:44:39.038Z,6.96
2022-09-09T03:47:11.031Z,7.02
2022-09-09T03:49:43.358Z,7.10
2022-09-09T03:52:15.610Z,7.16
2022-09-09T03:54:48.017Z,7.23
2022-09-09T03:57:21.045Z,7.26
2022-09-09T03:59:53.423Z,7.32
2022-09-09T04:02:26.007Z,7.36
2022-09-09T04:04:58.179Z,7.42
2022-09-09T04:07:30.188Z,7.45
2022-09-09T04:10:02.766Z,7.49
2022-09-09T04:12:35.842Z,7.52
2022-09-09T04:15:08.532Z,7.57
2022-09-09T04:17:40.781Z,7.65
2022-09-09T04:20:13.237Z,7.70
2022-09-09T04:22:45.375Z,7.77
2022-09-09T04:25:17.350Z,7.85
2022-09-09T04:27:51.003Z,7.93
2022-09-09T04:30:23.731Z,8.01
2022-09-09T04:32:55.911Z,8.11
2022-09-09T04:35:28.400Z,8.22
2022-09-09T04:38:00.867Z,8.31
2022-09-09T04:40:34.313Z,8.42
2022-09-09T04:43:08.310Z,8.51
2022-09-09T04:45:41.770Z,8.60
2022-09-09T04:48:13.971Z,8.68
2022-09-09T04:50:48.681Z,8.75
2022-09-09T04:53:20.733Z,8.83
2022-09-09T04:55:53.767Z,8.91
2022-09-09T04:58:26.429Z,8.99
2022-09-09T05:01:08.469Z,9.04
2022-09-09T05:03:41.386Z,9.11
2022-09-09T05:06:20.591Z,9.19
2022-09-09T05:08:54.662Z,9.28
2022-09-09T05:11:31.074Z,9.39
2022-09-09T05:14:05.515Z,9.48
2022-09-09T05:16:37.813Z,9.56
2022-09-09T05:19:10.245Z,9.62
2022-09-09T05:21:47.406Z,9.66
2022-09-09T05:24:21.074Z,9.69
2022-09-09T05:26:54.111Z,9.72
2022-09-09T05:29:27.026Z,9.76
2022-09-09T05:32:00.394Z,9.79
2022-09-09T05:34:33.071Z,9.84
2022-09-09T05:37:05.622Z,9.89
2022-09-09T05:39:40.363Z,9.96
2022-09-09T05:42:12.925Z,10.04
2022-09-09T05:44:46.121Z,10.39
2022-09-09T05:47:18.345Z,11.07
2022-09-09T05:49:50.621Z,11.80
2022-09-09T05:52:23.718Z,12.54
2022-09-09T05:54:58.271Z,12.93
2022-09-09T05:57:30.523Z,13.50
2022-09-09T06:00:03.894Z,13.95
2022-09-09T06:02:39.207Z,14.14
2022-09-09T06:05:12.050Z,14.42
2022-09-09T06:07:45.872Z,14.60
2022-09-09T06:10:18.439Z,15.19
2022-09-09T06:12:51.163Z,16.07
2022-09-09T06:15:23.321Z,16.60
2022-09-09T06:17:58.413Z,16.11
2022-09-09T06:20:32.135Z,16.11
2022-09-09T06:23:06.359Z,16.24
2022-09-09T06:25:40.262Z,16.67
2022-09-09T06:28:13.169Z,16.98
2022-09-09T06:30:45.739Z,16.65
2022-09-09T06:33:18.175Z,16.64
2022-09-09T06:35:58.245Z,16.97
2022-09-09T06:38:31.333Z,18.08
2022-09-09T06:41:03.471Z,19.34
2022-09-09T06:43:36.309Z,20.05
2022-09-09T06:46:12.520Z,20.41
2022-09-09T06:48:46.616Z,21.10
2022-09-09T06:51:25.583Z,21.56
2022-09-09T06:53:59.531Z,21.77
2022-09-09T06:56:35.285Z,21.39
2022-09-09T06:59:10.426Z,20.70
2022-09-09T07:01:55.617Z,19.43
2022-09-09T07:04:27.411Z,18.09
2022-09-09T07:07:00.032Z,17.25
2022-09-09T07:09:32.931Z,16.42
2022-09-09T07:12:06.959Z,15.80
2022-09-09T07:14:40.655Z,14.52
2022-09-09T07:17:13.159Z,14.52
2022-09-09T07:19:46.052Z,14.17
2022-09-09T07:22:21.331Z,13.90
2022-09-09T07:24:53.282Z,13.83
2022-09-09T07:27:25.523Z,13.91
2022-09-09T07:29:59.045Z,13.93
2022-09-09T07:32:33.025Z,14.03
2022-09-09T07:35:05.692Z,14.10
2022-09-09T07:37:39.519Z,14.15
2022-09-09T07:40:12.387Z,14.12
2022-09-09T07:42:44.715Z,14.19
2022-09-09T07:45:17.372Z,14.30
2022-09-09T07:47:50.161Z,14.37
2022-09-09T07:50:22.944Z,14.34
2022-09-09T07:52:57.611Z,14.33
2022-09-09T07:55:31.628Z,14.38
2022-09-09T07:58:04.039Z,14.54
2022-09-09T08:00:37.425Z,14.84
2022-09-09T08:03:09.815Z,15.21
2022-09-09T08:05:44.206Z,15.49
2022-09-09T08:08:17.722Z,15.42
2022-09-09T08:10:50.208Z,15.42
2022-09-09T08:13:22.187Z,15.15
2022-09-09T08:15:56.814Z,14.98
2022-09-09T08:18:29.518Z,14.86
2022-09-09T08:21:10.096Z,14.74
2022-09-09T08:23:47.143Z,14.59
2022-09-09T08:26:24.669Z,14.49
2022-09-09T08:28:59.197Z,14.48
2022-09-09T08:31:34.594Z,14.47
2022-09-09T08:34:10.017Z,14.50
2022-09-09T08:36:44.724Z,14.52
2022-09-09T08:39:20.051Z,14.51
2022-09-09T08:42:20.026Z,14.47
2022-09-09T08:45:01.703Z,14.44
2022-09-09T08:47:50.551Z,14.47
2022-09-09T08:50:26.226Z,14.51
2022-09-09T08:53:12.068Z,14.64
2022-09-09T08:55:56.737Z,14.76
2022-09-09T08:58:36.532Z,14.79
2022-09-09T09:01:22.326Z,15.04
2022-09-09T09:04:30.800Z,15.05
2022-09-09T09:07:32.100Z,15.21
2022-09-09T09:10:40.440Z,15.21
2022-09-09T09:12:57.463Z,15.34
2022-09-09T09:15:33.565Z,15.26
2022-09-09T09:18:06.940Z,15.01
2022-09-09T09:21:00.117Z,14.98
2022-09-09T09:23:41.074Z,14.98
2022-09-09T09:26:14.069Z,14.82
2022-09-09T09:28:48.255Z,14.82
2022-09-09T09:31:23.314Z,14.91
2022-09-09T09:33:57.219Z,15.01
2022-09-09T09:36:47.244Z,15.11
2022-09-09T09:42:06.666Z,14.86
2022-09-09T09:44:38.798Z,15.06
2022-09-09T09:47:18.318Z,15.06
2022-09-09T09:50:00.558Z,15.22
2022-09-09T09:52:36.939Z,15.41
2022-09-09T09:55:13.272Z,15.92
2022-09-09T09:57:46.873Z,15.93
2022-09-09T10:00:25.017Z,15.93
2022-09-09T10:03:03.166Z,15.77
2022-09-09T10:05:38.262Z,15.47
2022-09-09T10:08:18.995Z,15.47
2022-09-09T10:11:23.989Z,14.98
2022-09-09T10:14:20.260Z,14.98
2022-09-09T10:16:55.404Z,14.85
2022-09-09T10:19:30.454Z,15.10
2022-09-09T10:22:13.790Z,15.71
2022-09-09T10:25:07.598Z,16.35
2022-09-09T10:28:06.322Z,16.78
2022-09-09T10:31:08.299Z,17.06
2022-09-09T10:33:55.417Z,17.12
2022-09-09T10:36:28.861Z,17.03
2022-09-09T10:39:25.918Z,16.88
2022-09-09T10:42:18.484Z,16.65
2022-09-09T10:45:17.772Z,16.29
2022-09-09T10:47:52.786Z,15.85
2022-09-09T10:51:07.103Z,15.50
2022-09-09T10:53:30.748Z,15.28
2022-09-09T10:56:05.769Z,15.09
2022-09-09T10:58:40.821Z,15.09
2022-09-09T11:01:17.222Z,15.35
2022-09-09T11:03:52.761Z,15.64
2022-09-09T11:06:29.192Z,15.71
2022-09-09T11:09:04.261Z,15.88
2022-09-09T11:11:39.644Z,15.93
2022-09-09T11:14:37.498Z,16.06
2022-09-09T11:17:20.358Z,15.98
2022-09-09T11:19:52.932Z,15.90
2022-09-09T11:22:34.317Z,15.75
2022-09-09T11:25:27.748Z,15.64
2022-09-09T11:28:19.041Z,15.43
2022-09-09T11:31:21.497Z,15.43
2022-09-09T11:34:03.105Z,15.37
2022-09-09T11:36:47.169Z,15.33
2022-09-09T11:39:22.345Z,15.32
2022-09-09T11:41:55.273Z,15.45
2022-09-09T11:44:30.519Z,15.45
2022-09-09T11:47:02.953Z,15.46
2022-09-09T11:49:43.374Z,15.41
2022-09-09T11:52:27.893Z,15.28
2022-09-09T11:55:01.624Z,15.03
2022-09-09T11:57:37.290Z,15.28
2022-09-09T12:00:11.624Z,15.07
2022-09-09T12:02:46.407Z,14.99
2022-09-09T12:05:21.196Z,15.03
2022-09-09T12:07:59.715Z,15.09
2022-09-09T12:10:40.614Z,15.17
2022-09-09T12:13:21.777Z,15.34
2022-09-09T12:15:59.330Z,15.64
2022-09-09T12:18:40.819Z,16.20
2022-09-09T12:21:34.615Z,17.13
2022-09-09T12:24:15.960Z,17.13
2022-09-09T12:27:03.383Z,17.61
2022-09-09T12:29:41.361Z,18.14
2022-09-09T12:32:16.411Z,18.30
2022-09-09T12:35:04.200Z,19.70
2022-09-09T12:37:44.894Z,21.93
2022-09-09T12:40:26.521Z,24.53
2022-09-09T12:42:59.966Z,26.58
2022-09-09T12:45:36.685Z,27.87
2022-09-09T12:48:13.052Z,28.72
2022-09-09T12:50:52.468Z,30.21
2022-09-09T12:53:33.506Z,31.42
2022-09-09T12:56:15.055Z,32.25
2022-09-09T12:58:52.711Z,33.14
2022-09-09T13:01:34.688Z,34.02
2022-09-09T13:04:20.958Z,34.43
2022-09-09T13:06:53.681Z,33.38
2022-09-09T13:09:26.261Z,32.62
2022-09-09T13:11:59.800Z,32.32
2022-09-09T13:14:35.949Z,31.41
2022-09-09T13:17:11.783Z,31.41
2022-09-09T13:19:47.784Z,30.92
2022-09-09T13:22:28.953Z,32.16
2022-09-09T13:25:13.035Z,32.93
2022-09-09T13:28:00.393Z,31.50
2022-09-09T13:30:40.337Z,29.20
2022-09-09T13:33:18.861Z,27.84
2022-09-09T13:36:03.920Z,26.41
2022-09-09T13:38:41.803Z,26.14
2022-09-09T13:41:15.802Z,25.87
2022-09-09T13:43:51.420Z,24.58
2022-09-09T13:46:29.436Z,24.63
2022-09-09T13:49:03.952Z,21.95
2022-09-09T13:51:38.665Z,20.58
2022-09-09T13:54:16.011Z,19.75
2022-09-09T13:56:50.315Z,18.86
2022-09-09T13:59:22.689Z,18.05
2022-09-09T14:01:55.336Z,17.44
2022-09-09T14:04:27.532Z,16.86
2022-09-09T14:07:00.594Z,16.44
2022-09-09T14:09:32.837Z,16.27
2022-09-09T14:12:05.737Z,16.68
2022-09-09T14:14:38.197Z,17.85
2022-09-09T14:17:11.339Z,19.54
2022-09-09T14:19:44.378Z,21.58
2022-09-09T14:22:17.328Z,21.94
2022-09-09T14:24:50.596Z,23.28
2022-09-09T14:27:22.925Z,23.86
2022-09-09T14:29:55.616Z,23.09
2022-09-09T14:32:28.158Z,21.93
2022-09-09T14:35:00.446Z,20.81
2022-09-09T14:37:34.157Z,19.87
2022-09-09T14:40:08.551Z,18.99
2022-09-09T14:42:40.505Z,18.16
2022-09-09T14:45:13.473Z,18.07
2022-09-09T14:47:46.176Z,16.99
2022-09-09T14:50:18.466Z,16.47
2022-09-09T14:52:51.765Z,16.15
2022-09-09T14:55:24.274Z,15.92
2022-09-09T14:57:56.889Z,15.77
2022-09-09T15:00:29.160Z,15.65
2022-09-09T15:03:01.784Z,15.46
2022-09-09T15:05:34.419Z,15.23
2022-09-09T15:08:06.818Z,14.93
2022-09-09T15:10:40.137Z,14.66
2022-09-09T15:13:13.101Z,14.42
2022-09-09T15:15:45.991Z,13.94
2022-09-09T15:18:18.132Z,13.94
2022-09-09T15:20:50.238Z,13.76
2022-09-09T15:23:22.622Z,13.60
2022-09-09T15:25:56.805Z,13.43
2022-09-09T15:28:29.309Z,13.29
2022-09-09T15:31:04.233Z,13.22
2022-09-09T15:33:40.445Z,13.13
2022-09-09T15:36:28.099Z,13.03
2022-09-09T15:39:02.120Z,12.93
2022-09-09T15:41:34.714Z,12.86
2022-09-09T15:44:07.451Z,12.80
2022-09-09T15:46:42.201Z,12.74
2022-09-09T15:49:17.074Z,12.69
2022-09-09T15:51:58.649Z,12.61
2022-09-09T15:54:44.128Z,12.52
2022-09-09T15:57:16.225Z,12.39
2022-09-09T15:59:49.318Z,12.29
2022-09-09T16:02:23.004Z,12.20
2022-09-09T16:04:55.556Z,12.12
2022-09-09T16:07:27.829Z,12.02
2022-09-09T16:10:00.013Z,11.93
2022-09-09T16:12:32.704Z,11.86
2022-09-09T16:15:05.139Z,11.78
2022-09-09T16:17:39.020Z,11.73
2022-09-09T16:20:12.932Z,11.67
2022-09-09T16:22:45.709Z,11.61
2022-09-09T16:25:19.576Z,11.52
2022-09-09T16:27:51.875Z,11.46
2022-09-09T16:30:26.640Z,11.41
2022-09-09T16:32:58.992Z,11.33
2022-09-09T16:35:31.147Z,11.27
2022-09-09T16:38:03.288Z,11.23
2022-09-09T16:40:37.536Z,11.18
2022-09-09T16:43:13.848Z,11.14
2022-09-09T16:45:47.215Z,11.07
2022-09-09T16:48:19.973Z,11.06
2022-09-09T16:50:52.188Z,11.02
2022-09-09T16:53:24.686Z,11.03
2022-09-09T16:55:57.580Z,10.98
2022-09-09T16:58:29.752Z,10.98
2022-09-09T17:01:06.081Z,10.96
2022-09-09T17:03:38.712Z,10.92
2022-09-09T17:06:17.250Z,10.87
2022-09-09T17:08:50.031Z,10.82
2022-09-09T17:11:23.226Z,10.77
2022-09-09T17:13:57.160Z,10.71
2022-09-09T17:16:31.878Z,10.68
2022-09-09T17:19:05.413Z,10.64
2022-09-09T17:21:54.715Z,10.61
2022-09-09T17:24:14.148Z,10.57
2022-09-09T17:26:46.563Z,10.52
2022-09-09T17:29:18.652Z,10.49
2022-09-09T17:31:50.659Z,10.45
2022-09-09T17:34:23.112Z,10.42
2022-09-09T17:36:55.756Z,10.39
2022-09-09T17:39:28.579Z,10.38
2022-09-09T17:42:01.095Z,10.36
2022-09-09T17:44:34.223Z,10.31
2022-09-09T17:47:07.362Z,10.26
2022-09-09T17:49:40.405Z,10.23
2022-09-09T17:52:13.639Z,10.19
2022-09-09T17:54:46.006Z,10.13
2022-09-09T17:57:20.758Z,10.14
2022-09-09T17:59:52.936Z,10.11
2022-09-09T18:02:26.193Z,10.09
2022-09-09T18:05:00.717Z,10.05
2022-09-09T18:07:34.098Z,10.03
2022-09-09T18:10:06.906Z,9.99
2022-09-09T18:12:40.435Z,9.97
2022-09-09T18:15:24.150Z,9.93
2022-09-09T18:17:49.081Z,9.92
2022-09-09T18:20:23.416Z,9.89
2022-09-09T18:22:55.924Z,9.89
2022-09-09T18:25:30.269Z,9.86
2022-09-09T18:28:02.222Z,9.83
2022-09-09T18:30:36.462Z,9.81
2022-09-09T18:33:11.301Z,9.78
2022-09-09T18:35:44.340Z,9.77
2022-09-09T18:38:17.908Z,9.70
2022-09-09T18:40:50.352Z,9.66
2022-09-09T18:43:22.846Z,9.68
2022-09-09T18:45:55.073Z,9.73
2022-09-09T18:48:28.730Z,9.80
2022-09-09T18:51:09.431Z,9.77
2022-09-09T18:53:43.153Z,9.76
2022-09-09T18:56:16.272Z,9.71
2022-09-09T18:58:50.280Z,9.69
2022-09-09T19:01:24.446Z,9.66
2022-09-09T19:03:59.839Z,9.57
2022-09-09T19:06:34.691Z,9.53
2022-09-09T19:09:08.091Z,9.47
2022-09-09T19:11:40.953Z,9.42
2022-09-09T19:14:15.645Z,9.40
2022-09-09T19:16:48.784Z,9.38
2022-09-09T19:19:23.767Z,9.36
2022-09-09T19:21:58.067Z,9.33
2022-09-09T19:24:32.833Z,9.31
2022-09-09T19:27:07.318Z,9.27
2022-09-09T19:29:39.997Z,9.22
2022-09-09T19:34:46.274Z,9.16
2022-09-09T19:37:18.855Z,9.13
2022-09-09T19:39:51.053Z,9.12
2022-09-09T19:42:23.462Z,9.10
2022-09-09T19:44:57.237Z,9.06
2022-09-09T19:47:29.292Z,9.03
2022-09-09T19:50:01.170Z,9.03
2022-09-09T19:52:33.424Z,9.01
2022-09-09T19:55:06.061Z,8.95
2022-09-09T19:57:38.188Z,8.93
2022-09-09T20:00:11.346Z,8.92
2022-09-09T20:03:02.711Z,8.91
2022-09-09T20:05:19.652Z,8.85
2022-09-09T20:08:09.056Z,8.84
2022-09-09T20:10:41.362Z,8.80
2022-09-09T20:13:14.357Z,8.75
2022-09-09T20:15:46.488Z,8.73
2022-09-09T20:18:18.636Z,8.72
2022-09-09T20:20:51.417Z,8.67
2022-09-09T20:23:23.508Z,8.64
2022-09-09T20:25:56.415Z,8.60
2022-09-09T20:28:29.680Z,8.57
2022-09-09T20:31:07.357Z,8.53
2022-09-09T20:33:39.827Z,8.54
2022-09-09T20:36:14.806Z,8.51
2022-09-09T20:38:50.439Z,8.45
2022-09-09T20:41:24.398Z,8.42
2022-09-09T20:43:59.694Z,8.39
2022-09-09T20:46:35.266Z,8.37
2022-09-09T20:49:09.023Z,8.34
2022-09-09T20:51:41.206Z,8.30
2022-09-09T20:54:16.116Z,8.27
2022-09-09T20:56:49.881Z,8.21
2022-09-09T20:59:24.322Z,8.15
2022-09-09T21:01:57.538Z,8.14
2022-09-09T21:04:29.874Z,8.15
2022-09-09T21:07:02.638Z,8.13
2022-09-09T21:09:34.657Z,8.11
2022-09-09T21:12:07.505Z,8.09
2022-09-09T21:14:39.452Z,8.08
2022-09-09T21:17:11.640Z,8.05
2022-09-09T21:19:43.841Z,8.03
2022-09-09T21:22:15.939Z,7.98
2022-09-09T21:24:47.921Z,7.92
2022-09-09T21:27:20.594Z,7.89
2022-09-09T21:29:52.968Z,7.86
2022-09-09T21:32:25.007Z,7.85
2022-09-09T21:34:57.451Z,7.81
2022-09-09T21:37:29.481Z,7.78
2022-09-09T21:40:01.930Z,7.73
2022-09-09T21:42:34.094Z,7.71
2022-09-09T21:45:06.854Z,7.72
2022-09-09T21:47:39.277Z,7.70
2022-09-09T21:50:11.481Z,7.66
2022-09-09T21:52:43.641Z,7.64
2022-09-09T21:55:15.606Z,7.61
2022-09-09T21:57:47.540Z,7.62
2022-09-09T22:00:19.527Z,7.58
2022-09-09T22:02:51.480Z,7.52
2022-09-09T22:05:23.411Z,7.50
2022-09-09T22:07:55.679Z,7.49
2022-09-09T22:10:27.700Z,7.44
2022-09-09T22:12:59.725Z,7.43
2022-09-09T22:15:32.721Z,7.42
2022-09-09T22:18:05.825Z,7.42
2022-09-09T22:20:43.068Z,7.40
2022-09-09T22:23:15.415Z,7.40
2022-09-09T22:25:49.620Z,7.42
2022-09-09T22:28:22.155Z,7.44
2022-09-09T22:30:54.615Z,7.44
2022-09-09T22:33:27.358Z,7.48
2022-09-09T22:35:59.520Z,7.46
2022-09-09T22:38:33.542Z,7.42
2022-09-09T22:41:07.565Z,7.35
2022-09-09T22:43:39.666Z,7.32
2022-09-09T22:46:11.877Z,7.32
2022-09-09T22:48:44.449Z,7.28
2022-09-09T22:51:17.324Z,7.24
2022-09-09T22:53:49.290Z,7.22
2022-09-09T22:56:21.637Z,7.16
2022-09-09T22:58:57.992Z,7.13
2022-09-09T23:01:30.669Z,7.11
2022-09-09T23:04:02.987Z,7.11
2022-09-09T23:06:35.305Z,7.07
2022-09-09T23:09:07.940Z,7.05
2022-09-09T23:11:40.922Z,7.06
2022-09-09T23:14:13.707Z,7.03
2022-09-09T23:16:46.984Z,7.01
2022-09-09T23:19:19.256Z,7.00
2022-09-09T23:21:51.425Z,6.98
2022-09-09T23:24:23.726Z,7.00
2022-09-09T23:26:56.056Z,7.04
2022-09-09T23:29:28.078Z,7.05
2022-09-09T23:32:00.214Z,7.00
2022-09-09T23:34:32.276Z,6.98
2022-09-09T23:37:04.264Z,6.97
2022-09-09T23:39:36.452Z,6.93
2022-09-09T23:42:09.714Z,6.90
2022-09-09T23:44:42.173Z,6.84
2022-09-09T23:47:14.667Z,6.82
2022-09-09T23:49:48.195Z,6.80
2022-09-09T23:52:20.310Z,6.78
2022-09-09T23:54:52.324Z,6.81
2022-09-09T23:57:24.488Z,6.76
2022-09-09T23:59:56.630Z,6.72
